createdAt,value
2022-11-09T00:00:48.447Z,20.27
2022-11-09T00:03:15.560Z,15.38
2022-11-09T00:05:42.681Z,19.23
2022-11-09T00:08:11.116Z,18.08
2022-11-09T00:10:38.770Z,14.93
2022-11-09T00:13:05.543Z,14.23
2022-11-09T00:15:32.424Z,14.70
2022-11-09T00:18:04.810Z,16.45
2022-11-09T00:20:31.591Z,15.20
2022-11-09T00:22:58.554Z,18.10
2022-11-09T00:25:25.358Z,13.18
2022-11-09T00:27:53.308Z,18.15
2022-11-09T00:30:20.209Z,21.13
2022-11-09T00:32:48.070Z,20.88
2022-11-09T00:35:15.145Z,15.27
2022-11-09T00:37:41.927Z,17.50
2022-11-09T00:40:09.699Z,14.38
2022-11-09T00:42:36.534Z,20.13
2022-11-09T00:45:03.577Z,17.05
2022-11-09T00:47:30.296Z,16.15
2022-11-09T00:50:34.171Z,16.73
2022-11-09T00:56:10.304Z,16.50
2022-11-09T00:58:38.542Z,18.27
2022-11-09T01:01:13.967Z,16.88
2022-11-09T01:03:59.576Z,19.02
2022-11-09T01:06:26.844Z,18.83
2022-11-09T01:08:54.029Z,17.63
2022-11-09T01:11:22.511Z,20.00
2022-11-09T01:13:49.422Z,18.83
2022-11-09T01:16:18.899Z,21.35
2022-11-09T01:18:46.030Z,18.67
2022-11-09T01:21:15.420Z,17.75
2022-11-09T01:23:45.333Z,22.35
2022-11-09T01:26:14.055Z,19.27
2022-11-09T01:28:41.502Z,17.35
2022-11-09T01:31:11.979Z,15.65
2022-11-09T01:33:39.277Z,18.90
2022-11-09T01:36:08.671Z,18.25
2022-11-09T01:38:36.636Z,19.17
2022-11-09T01:41:04.358Z,18.05
2022-11-09T01:43:31.419Z,16.92
2022-11-09T01:46:19.528Z,15.63
2022-11-09T01:49:12.999Z,15.13
2022-11-09T01:51:51.080Z,19.55
2022-11-09T01:54:21.996Z,17.05
2022-11-09T01:56:51.748Z,15.63
2022-11-09T01:59:22.560Z,17.05
2022-11-09T02:01:49.999Z,17.45
2022-11-09T02:04:56.387Z,15.80
2022-11-09T02:07:23.446Z,20.65
2022-11-09T02:10:03.380Z,16.83
2022-11-09T02:12:33.928Z,18.05
2022-11-09T02:15:03.813Z,26.48
2022-11-09T02:17:31.090Z,24.27
2022-11-09T02:19:58.913Z,22.80
2022-11-09T02:22:26.334Z,17.95
2022-11-09T02:24:56.277Z,19.55
2022-11-09T02:27:24.252Z,20.38
2022-11-09T02:29:51.987Z,18.30
2022-11-09T02:32:24.833Z,18.75
2022-11-09T02:34:51.589Z,21.30
2022-11-09T02:37:30.347Z,29.38
2022-11-09T02:39:59.189Z,22.73
2022-11-09T02:42:25.967Z,22.40
2022-11-09T02:44:56.785Z,18.70
2022-11-09T02:47:23.594Z,22.02
2022-11-09T02:49:50.477Z,31.40
2022-11-09T02:52:18.204Z,28.85
2022-11-09T02:54:45.179Z,26.48
2022-11-09T02:57:11.961Z,26.60
2022-11-09T02:59:38.728Z,31.00
2022-11-09T03:02:05.508Z,23.55
2022-11-09T03:04:32.349Z,22.63
2022-11-09T03:06:59.176Z,18.63
2022-11-09T03:09:25.951Z,23.17
2022-11-09T03:11:52.714Z,21.42
2022-11-09T03:14:19.534Z,24.98
2022-11-09T03:16:50.249Z,18.85
2022-11-09T03:19:17.417Z,21.10
2022-11-09T03:21:44.189Z,19.23
2022-11-09T03:24:10.979Z,20.10
2022-11-09T03:26:37.731Z,18.40
2022-11-09T03:29:04.581Z,19.80
2022-11-09T03:31:31.341Z,17.80
2022-11-09T03:33:58.384Z,21.02
2022-11-09T03:36:25.358Z,20.13
2022-11-09T03:38:52.051Z,18.35
2022-11-09T03:41:18.874Z,21.27
2022-11-09T03:43:45.576Z,21.30
2022-11-09T03:46:12.308Z,23.00
2022-11-09T03:48:39.028Z,20.90
2022-11-09T03:51:06.025Z,22.10
2022-11-09T03:53:32.855Z,22.77
2022-11-09T03:55:59.626Z,26.02
2022-11-09T03:58:26.438Z,20.40
2022-11-09T04:00:53.213Z,20.73
2022-11-09T04:03:20.155Z,20.25
2022-11-09T04:05:47.097Z,24.15
2022-11-09T04:08:13.871Z,22.90
2022-11-09T04:10:40.637Z,24.30
2022-11-09T04:13:07.441Z,21.83
2022-11-09T04:15:34.488Z,26.95
2022-11-09T04:18:03.794Z,33.45
2022-11-09T04:20:31.605Z,37.55
2022-11-09T04:23:00.445Z,34.88
2022-11-09T04:25:29.108Z,31.17
2022-11-09T04:27:57.661Z,30.95
2022-11-09T04:30:28.036Z,33.95
2022-11-09T04:32:56.209Z,48.30
2022-11-09T04:35:23.411Z,30.00
2022-11-09T04:37:55.201Z,24.48
2022-11-09T04:40:22.492Z,24.95
2022-11-09T04:42:49.446Z,27.75
2022-11-09T04:45:16.483Z,27.83
2022-11-09T04:47:43.462Z,26.35
2022-11-09T04:50:10.968Z,33.55
2022-11-09T04:52:37.859Z,30.95
2022-11-09T04:55:05.365Z,27.23
2022-11-09T04:57:32.208Z,30.17
2022-11-09T04:59:58.949Z,28.65
2022-11-09T05:02:25.789Z,26.90
2022-11-09T05:04:52.538Z,27.20
2022-11-09T05:07:19.361Z,27.25
2022-11-09T05:09:46.163Z,29.50
2022-11-09T05:12:13.343Z,30.92
2022-11-09T05:14:40.288Z,31.30
2022-11-09T05:17:08.754Z,29.55
2022-11-09T05:19:35.735Z,31.77
2022-11-09T05:22:23.011Z,30.48
2022-11-09T05:24:51.876Z,27.35
2022-11-09T05:27:19.017Z,29.88
2022-11-09T05:29:45.843Z,33.67
2022-11-09T05:32:12.619Z,30.45
2022-11-09T05:34:39.322Z,33.00
2022-11-09T05:37:06.260Z,29.63
2022-11-09T05:39:33.077Z,29.88
2022-11-09T05:41:59.935Z,26.58
2022-11-09T05:44:26.709Z,32.60
2022-11-09T05:46:53.624Z,28.67
2022-11-09T05:49:20.379Z,29.73
2022-11-09T05:51:47.193Z,37.05
2022-11-09T05:54:14.155Z,36.78
2022-11-09T05:56:40.894Z,36.45
2022-11-09T05:59:08.653Z,36.95
2022-11-09T06:01:35.468Z,33.45
2022-11-09T06:04:02.445Z,34.88
2022-11-09T06:06:29.996Z,36.72
2022-11-09T06:08:56.867Z,36.33
2022-11-09T06:11:24.603Z,34.03
2022-11-09T06:13:52.716Z,34.60
2022-11-09T06:16:19.493Z,34.97
2022-11-09T06:18:46.371Z,36.83
2022-11-09T06:21:13.396Z,38.38
2022-11-09T06:23:40.254Z,37.00
2022-11-09T06:26:09.993Z,40.92
2022-11-09T06:28:38.571Z,39.47
2022-11-09T06:31:07.237Z,41.15
2022-11-09T06:33:36.177Z,40.22
2022-11-09T06:36:04.075Z,42.70
2022-11-09T06:38:31.420Z,40.70
2022-11-09T06:40:59.505Z,39.15
2022-11-09T06:43:26.809Z,43.00
2022-11-09T06:45:54.558Z,38.40
2022-11-09T06:48:22.522Z,45.88
2022-11-09T06:50:50.803Z,41.70
2022-11-09T06:53:18.831Z,41.50
2022-11-09T06:55:50.610Z,41.80
2022-11-09T06:58:28.035Z,44.13
2022-11-09T07:00:55.111Z,50.28
2022-11-09T07:03:23.291Z,47.13
2022-11-09T07:05:52.283Z,42.40
2022-11-09T07:08:20.024Z,43.10
2022-11-09T07:10:46.891Z,41.30
2022-11-09T07:13:13.648Z,41.63
2022-11-09T07:15:41.081Z,46.08
2022-11-09T07:18:12.803Z,41.85
2022-11-09T07:20:40.017Z,46.28
2022-11-09T07:23:06.882Z,40.25
2022-11-09T07:25:34.593Z,37.17
2022-11-09T07:28:09.259Z,39.97
2022-11-09T07:30:37.041Z,35.15
2022-11-09T07:33:09.984Z,41.05
2022-11-09T07:35:38.102Z,35.90
2022-11-09T07:38:05.423Z,39.47
2022-11-09T07:40:33.719Z,41.28
2022-11-09T07:43:02.121Z,40.63
2022-11-09T07:45:31.089Z,40.72
2022-11-09T07:48:06.904Z,41.33
2022-11-09T07:50:36.169Z,39.13
2022-11-09T07:53:03.871Z,43.63
2022-11-09T07:55:31.154Z,44.08
2022-11-09T07:58:07.939Z,47.75
2022-11-09T08:00:36.566Z,42.00
2022-11-09T08:03:04.637Z,43.83
2022-11-09T08:05:32.093Z,39.67
2022-11-09T08:08:01.655Z,43.95
2022-11-09T08:10:30.295Z,45.58
2022-11-09T08:13:03.487Z,42.13
2022-11-09T08:15:31.376Z,43.40
2022-11-09T08:18:03.707Z,47.65
2022-11-09T08:20:31.137Z,44.30
2022-11-09T08:23:04.570Z,43.50
2022-11-09T08:25:35.927Z,43.55
2022-11-09T08:28:04.058Z,45.47
2022-11-09T08:30:31.422Z,42.63
2022-11-09T08:32:59.943Z,39.67
2022-11-09T08:35:27.426Z,40.55
2022-11-09T08:37:55.027Z,44.17
2022-11-09T08:43:09.394Z,37.28
2022-11-09T08:45:39.018Z,31.23
2022-11-09T08:48:08.667Z,33.33
2022-11-09T08:50:38.438Z,39.47
2022-11-09T08:53:06.798Z,25.13
2022-11-09T08:55:34.341Z,23.15
2022-11-09T08:58:02.977Z,22.75
2022-11-09T09:00:30.535Z,21.63
2022-11-09T09:03:00.545Z,23.40
2022-11-09T09:05:30.099Z,31.95
2022-11-09T09:07:58.999Z,28.77
2022-11-09T09:10:26.876Z,62.80
2022-11-09T09:12:54.067Z,32.03
2022-11-09T09:18:03.842Z,37.45
2022-11-09T09:20:32.271Z,37.80
2022-11-09T09:23:00.476Z,34.60
2022-11-09T09:25:27.993Z,28.95
2022-11-09T09:27:55.076Z,46.42
2022-11-09T09:30:24.703Z,31.63
2022-11-09T09:32:51.799Z,36.80
2022-11-09T09:35:18.581Z,34.58
2022-11-09T09:37:45.412Z,31.02
2022-11-09T09:40:25.783Z,34.17
2022-11-09T09:42:54.227Z,31.17
2022-11-09T09:45:28.785Z,28.35
2022-11-09T09:48:28.927Z,86.80
2022-11-09T09:51:02.893Z,38.97
2022-11-09T09:53:37.815Z,34.58
2022-11-09T09:56:44.408Z,38.83
2022-11-09T09:59:35.403Z,32.22
2022-11-09T10:02:03.943Z,31.00
2022-11-09T10:04:40.738Z,43.50
2022-11-09T10:07:27.198Z,34.85
2022-11-09T10:10:26.041Z,37.92
2022-11-09T10:13:11.578Z,39.53
2022-11-09T10:15:50.024Z,39.08
2022-11-09T10:18:46.189Z,36.85
2022-11-09T10:21:48.999Z,41.65
2022-11-09T10:24:36.906Z,33.58
2022-11-09T10:27:34.467Z,35.63
2022-11-09T10:30:03.274Z,43.55
2022-11-09T10:32:33.008Z,40.95
2022-11-09T10:35:13.943Z,40.00
2022-11-09T10:37:46.775Z,39.20
2022-11-09T10:40:25.167Z,138.52
2022-11-09T10:42:58.954Z,37.80
2022-11-09T10:45:25.788Z,37.00
2022-11-09T10:47:52.986Z,38.78
2022-11-09T10:50:40.519Z,38.55
2022-11-09T10:53:27.370Z,39.72
2022-11-09T10:56:06.352Z,36.83
2022-11-09T10:58:35.371Z,42.10
2022-11-09T11:01:18.535Z,42.38
2022-11-09T11:03:54.540Z,38.42
2022-11-09T11:06:31.986Z,36.33
2022-11-09T11:09:11.423Z,35.00
2022-11-09T11:11:39.737Z,38.80
2022-11-09T11:14:32.388Z,35.38
2022-11-09T11:16:59.321Z,35.80
2022-11-09T11:19:26.113Z,36.90
2022-11-09T11:22:20.156Z,39.70
2022-11-09T11:25:01.410Z,38.10
2022-11-09T11:27:51.109Z,40.43
2022-11-09T11:33:20.656Z,42.10
2022-11-09T11:36:19.385Z,40.03
2022-11-09T11:38:57.802Z,42.53
2022-11-09T11:41:42.709Z,44.97
2022-11-09T11:44:21.770Z,42.25
2022-11-09T11:47:01.498Z,43.25
2022-11-09T11:50:11.124Z,44.40
2022-11-09T11:53:03.564Z,47.80
2022-11-09T11:55:39.118Z,52.25
2022-11-09T11:58:12.055Z,43.30
2022-11-09T12:00:52.954Z,49.30
2022-11-09T12:03:50.589Z,48.15
2022-11-09T12:06:53.950Z,46.88
2022-11-09T12:09:26.499Z,44.78
2022-11-09T12:12:07.696Z,50.20
2022-11-09T12:14:43.741Z,44.27
2022-11-09T12:17:46.063Z,48.33
2022-11-09T12:20:31.408Z,45.05
2022-11-09T12:23:31.651Z,49.28
2022-11-09T12:26:01.536Z,48.17
2022-11-09T12:28:34.641Z,53.22
2022-11-09T12:31:11.671Z,50.92
2022-11-09T12:33:44.649Z,49.58
2022-11-09T12:36:20.617Z,52.95
2022-11-09T12:39:16.138Z,47.78
2022-11-09T12:41:44.537Z,46.33
2022-11-09T12:44:29.674Z,49.72
2022-11-09T12:47:15.372Z,52.65
2022-11-09T12:49:45.717Z,49.35
2022-11-09T12:52:15.681Z,48.83
2022-11-09T12:54:49.002Z,54.72
2022-11-09T12:57:26.128Z,52.97
2022-11-09T12:59:58.537Z,49.75
2022-11-09T13:02:42.857Z,49.92
2022-11-09T13:05:32.905Z,47.28
2022-11-09T13:08:05.252Z,54.03
2022-11-09T13:10:37.567Z,66.47
2022-11-09T13:13:16.929Z,53.72
2022-11-09T13:16:04.487Z,59.92
2022-11-09T13:18:35.442Z,55.80
2022-11-09T13:21:21.583Z,60.35
2022-11-09T13:24:01.307Z,59.47
2022-11-09T13:26:32.463Z,54.55
2022-11-09T13:29:09.943Z,68.93
2022-11-09T13:32:11.045Z,57.40
2022-11-09T13:34:55.975Z,65.00
2022-11-09T13:37:41.060Z,56.95
2022-11-09T13:40:33.357Z,60.28
2022-11-09T13:45:52.837Z,64.78
2022-11-09T13:48:40.849Z,57.67
2022-11-09T13:51:12.876Z,57.47
2022-11-09T13:56:37.911Z,58.85
2022-11-09T13:59:37.158Z,63.53
2022-11-09T14:02:16.182Z,63.47
2022-11-09T14:04:53.807Z,67.18
2022-11-09T14:07:24.046Z,61.80
2022-11-09T14:10:01.750Z,69.25
2022-11-09T14:12:55.123Z,64.18
2022-11-09T14:15:51.234Z,62.45
2022-11-09T14:19:06.528Z,61.15
2022-11-09T14:21:36.175Z,66.65
2022-11-09T14:24:17.429Z,65.25
2022-11-09T14:27:19.197Z,67.57
2022-11-09T14:29:57.803Z,67.03
2022-11-09T14:32:38.473Z,72.43
2022-11-09T14:35:26.337Z,68.55
2022-11-09T14:37:55.059Z,68.53
2022-11-09T14:40:24.632Z,65.40
2022-11-09T14:43:20.569Z,57.72
2022-11-09T14:45:53.613Z,61.15
2022-11-09T14:48:22.314Z,59.13
2022-11-09T14:50:52.219Z,63.10
2022-11-09T14:53:33.953Z,57.35
2022-11-09T14:56:23.377Z,60.75
2022-11-09T14:58:51.552Z,54.92
2022-11-09T15:01:20.118Z,65.82
2022-11-09T15:04:17.678Z,63.33
2022-11-09T15:06:50.245Z,149.93
2022-11-09T15:09:20.563Z,75.30
2022-11-09T15:11:48.524Z,64.63
2022-11-09T15:14:25.352Z,69.70
2022-11-09T15:17:07.412Z,70.90
2022-11-09T15:19:39.332Z,72.03
2022-11-09T15:22:06.338Z,73.43
2022-11-09T15:24:47.720Z,72.78
2022-11-09T15:28:08.883Z,66.65
2022-11-09T15:30:55.602Z,79.18
2022-11-09T15:36:33.498Z,79.43
2022-11-09T15:42:02.796Z,152.63
2022-11-09T15:44:30.021Z,107.30
2022-11-09T15:46:57.150Z,111.20
2022-11-09T15:49:29.679Z,87.15
2022-11-09T15:51:57.362Z,80.25
2022-11-09T15:54:24.646Z,75.57
2022-11-09T15:56:52.207Z,79.38
2022-11-09T15:59:27.963Z,84.00
2022-11-09T16:01:55.143Z,76.00
2022-11-09T16:04:23.482Z,71.97
2022-11-09T16:06:50.360Z,74.70
2022-11-09T16:09:18.234Z,88.72
2022-11-09T16:11:48.689Z,80.82
2022-11-09T16:14:27.710Z,86.15
2022-11-09T16:16:56.071Z,83.72
2022-11-09T16:19:22.897Z,85.80
2022-11-09T16:21:53.726Z,85.57
2022-11-09T16:27:17.094Z,86.20
2022-11-09T16:30:01.258Z,90.28
2022-11-09T16:37:56.989Z,90.32
2022-11-09T16:43:05.649Z,84.70
2022-11-09T16:45:33.930Z,95.15
2022-11-09T16:48:04.609Z,86.60
2022-11-09T16:50:31.708Z,73.68
2022-11-09T16:52:59.412Z,75.75
2022-11-09T16:55:27.942Z,71.43
2022-11-09T16:57:55.077Z,76.32
2022-11-09T17:00:33.752Z,69.53
2022-11-09T17:03:12.279Z,67.93
2022-11-09T17:05:40.369Z,65.60
2022-11-09T17:08:07.925Z,77.28
2022-11-09T17:10:41.859Z,88.22
2022-11-09T17:13:09.795Z,90.55
2022-11-09T17:15:42.442Z,69.90
2022-11-09T17:18:10.351Z,66.95
2022-11-09T17:20:50.615Z,52.60
2022-11-09T17:34:48.992Z,35.72
2022-11-09T17:37:24.824Z,35.28
2022-11-09T17:39:53.902Z,32.30
2022-11-09T17:42:21.028Z,32.90
2022-11-09T17:45:04.913Z,33.08
2022-11-09T17:50:15.224Z,35.22
2022-11-09T17:55:34.154Z,37.72
2022-11-09T18:01:17.864Z,44.20
2022-11-09T18:03:51.559Z,51.42
2022-11-09T18:06:29.740Z,46.10
2022-11-09T18:12:10.775Z,51.65
2022-11-09T18:20:17.106Z,42.05
2022-11-09T18:22:44.095Z,41.53
2022-11-09T18:25:12.058Z,42.35
2022-11-09T18:27:39.428Z,40.22
2022-11-09T18:30:07.486Z,41.60
2022-11-09T18:32:34.573Z,34.78
2022-11-09T18:35:02.950Z,40.42
2022-11-09T18:37:33.367Z,36.65
2022-11-09T18:40:13.224Z,39.97
2022-11-09T18:42:42.459Z,51.53
2022-11-09T18:45:10.875Z,50.90
2022-11-09T18:50:42.108Z,48.65
2022-11-09T18:53:08.945Z,46.95
2022-11-09T18:55:36.203Z,53.08
2022-11-09T18:58:03.303Z,55.10
2022-11-09T19:00:41.512Z,47.58
2022-11-09T19:03:24.821Z,55.22
2022-11-09T19:05:52.501Z,47.83
2022-11-09T19:11:24.574Z,50.60
2022-11-09T19:13:53.997Z,51.75
2022-11-09T19:19:03.987Z,61.53
2022-11-09T19:21:43.280Z,60.83
2022-11-09T19:24:15.204Z,63.70
2022-11-09T19:26:42.083Z,76.10
2022-11-09T19:29:10.950Z,76.15
2022-11-09T19:31:43.061Z,76.07
2022-11-09T19:34:18.643Z,88.23
2022-11-09T19:36:46.054Z,80.68
2022-11-09T19:39:14.813Z,80.53
2022-11-09T19:41:42.671Z,85.78
2022-11-09T19:44:13.886Z,85.70
2022-11-09T19:54:58.751Z,86.88
2022-11-09T19:57:25.970Z,87.00
2022-11-09T20:08:20.388Z,84.70
2022-11-09T20:13:31.331Z,85.28
2022-11-09T20:16:07.398Z,87.20
2022-11-09T20:18:45.386Z,84.80
2022-11-09T20:44:50.618Z,63.75
2022-11-09T20:47:42.078Z,63.97
2022-11-09T20:50:11.739Z,63.88
2022-11-09T20:52:51.813Z,63.53
2022-11-09T20:55:22.775Z,63.22
2022-11-09T20:57:49.681Z,61.42
2022-11-09T21:00:24.170Z,66.50
2022-11-09T21:03:01.020Z,63.95
2022-11-09T21:05:36.317Z,57.63
2022-11-09T21:08:03.311Z,59.75
2022-11-09T21:10:38.583Z,62.60
2022-11-09T21:13:08.421Z,61.10
2022-11-09T21:15:45.304Z,53.33
2022-11-09T21:20:58.913Z,56.47
2022-11-09T21:27:11.651Z,55.10
2022-11-09T21:30:04.156Z,55.58
2022-11-09T21:32:32.496Z,56.20
2022-11-09T21:37:43.783Z,52.78
2022-11-09T21:40:12.053Z,50.85
2022-11-09T21:45:28.018Z,48.90
2022-11-09T21:47:59.894Z,49.40
2022-11-09T21:50:27.015Z,48.05
2022-11-09T21:52:54.462Z,49.97
2022-11-09T21:55:21.420Z,52.20
2022-11-09T21:57:49.879Z,58.05
2022-11-09T22:00:17.583Z,51.35
2022-11-09T22:02:50.253Z,54.47
2022-11-09T22:05:22.925Z,51.95
2022-11-09T22:07:50.157Z,64.40
2022-11-09T22:10:17.283Z,73.07
2022-11-09T22:16:04.585Z,69.38
2022-11-09T22:18:50.922Z,65.25
2022-11-09T22:21:18.642Z,67.25
2022-11-09T22:23:45.928Z,76.75
2022-11-09T22:26:13.031Z,75.65
2022-11-09T22:28:39.843Z,79.55
2022-11-09T22:31:09.314Z,81.28
2022-11-09T22:33:36.816Z,76.35
2022-11-09T22:36:06.956Z,80.43
2022-11-09T22:38:35.805Z,77.38
2022-11-09T22:41:05.674Z,84.28
2022-11-09T22:43:34.919Z,83.55
2022-11-09T22:46:10.174Z,92.68
2022-11-09T22:48:37.733Z,107.22
2022-11-09T22:51:05.433Z,124.55
2022-11-09T22:53:33.152Z,143.85
2022-11-09T22:56:02.233Z,124.50
2022-11-09T22:58:29.974Z,119.65
2022-11-09T23:01:05.757Z,130.75
2022-11-09T23:03:32.779Z,120.57
2022-11-09T23:06:12.502Z,122.90
2022-11-09T23:08:39.676Z,108.70
2022-11-09T23:11:08.545Z,109.57
2022-11-09T23:13:35.455Z,106.75
2022-11-09T23:16:08.634Z,115.90
2022-11-09T23:21:41.691Z,113.47
2022-11-09T23:24:31.909Z,112.38
2022-11-09T23:26:59.028Z,128.25
2022-11-09T23:29:25.901Z,129.50
2022-11-09T23:31:55.213Z,157.30
2022-11-09T23:34:22.055Z,150.80
2022-11-09T23:36:49.127Z,152.63
2022-11-09T23:39:16.123Z,146.82
2022-11-09T23:41:43.153Z,140.48
2022-11-09T23:44:10.074Z,142.23
2022-11-09T23:46:37.154Z,153.18
2022-11-09T23:49:05.465Z,166.20
2022-11-09T23:51:32.279Z,159.02
2022-11-09T23:53:58.998Z,146.50
2022-11-09T23:56:25.782Z,145.10
2022-11-09T23:58:52.555Z,142.50
